Time;durP1;ratioP1;P1;durP2;ratioP2;P2;SDS_P1;SDS_P2;PMS_P1;PMS_P2;Temp;Humidity;BMP_temperature;BMP_pressure;BME280_temperature;BME280_humidity;BME280_pressure;Samples;Min_cycle;Max_cycle;Signal;HPM_P1;HPM_P2
2021/11/02 00:01:17;;;;;;;128.98;52.78;;;;;;;0.64;76.68;100297.94;4974082;28;20046;-77
2021/11/02 00:03:43;;;;;;;126.32;54.78;;;;;;;0.72;76.41;100301.19;4991522;28;20523;-78
2021/11/02 00:06:09;;;;;;;130.50;53.80;;;;;;;0.80;75.60;100308.81;4991430;28;20100;-76
2021/11/02 00:08:34;;;;;;;142.82;54.00;;;;;;;0.85;75.44;100308.69;4965198;28;20043;-77
2021/11/02 00:11:00;;;;;;;141.02;52.97;;;;;;;0.67;76.64;100307.44;4955037;28;20523;-76
2021/11/02 00:13:29;;;;;;;130.85;52.42;;;;;;;0.51;77.87;100301.75;4954100;28;20050;-79
2021/11/02 00:15:58;;;;;;;139.10;53.53;;;;;;;0.54;78.95;100309.50;4954739;28;20043;-78
2021/11/02 00:18:26;;;;;;;124.07;50.85;;;;;;;0.57;78.84;100301.59;4955416;28;20047;-76
2021/11/02 00:20:59;;;;;;;122.22;52.28;;;;;;;0.64;78.41;100300.56;4954398;28;20046;-75
2021/11/02 00:23:25;;;;;;;162.23;55.50;;;;;;;0.62;78.43;100300.59;4971961;28;20054;-79
2021/11/02 00:25:51;;;;;;;169.23;55.25;;;;;;;0.62;78.95;100302.34;4973020;28;20055;-80
2021/11/02 00:28:17;;;;;;;191.40;59.75;;;;;;;0.52;78.78;100299.09;4972248;28;20097;-79
2021/11/02 00:30:42;;;;;;;151.60;55.13;;;;;;;0.46;78.82;100302.75;4973774;28;20061;-76
2021/11/02 00:33:09;;;;;;;141.90;53.42;;;;;;;0.46;79.06;100294.94;4961824;28;20073;-79
2021/11/02 00:35:34;;;;;;;132.52;51.90;;;;;;;0.68;79.71;100306.53;4961873;28;20602;-77
2021/11/02 00:38:00;;;;;;;153.95;50.17;;;;;;;0.79;78.85;100296.69;4976752;28;20038;-77
2021/11/02 00:40:26;;;;;;;132.85;54.33;;;;;;;0.88;78.54;100293.00;4945755;28;20053;-79
2021/11/02 00:42:58;;;;;;;132.75;48.95;;;;;;;0.95;77.86;100300.59;4959905;28;20125;-75
2021/11/02 00:45:36;;;;;;;137.15;51.10;;;;;;;1.04;76.97;100289.06;4956682;28;20042;-77
2021/11/02 00:48:23;;;;;;;113.75;47.20;;;;;;;1.08;76.27;100293.28;4955820;28;20046;-79
2021/11/02 00:50:49;;;;;;;144.63;49.05;;;;;;;1.11;76.55;100295.81;4976673;28;20038;-78
2021/11/02 00:53:14;;;;;;;115.25;49.05;;;;;;;1.14;75.93;100287.06;4982040;28;20493;-76
2021/11/02 00:55:40;;;;;;;123.80;49.40;;;;;;;1.18;75.44;100295.63;4987908;28;20049;-76
2021/11/02 00:58:06;;;;;;;117.32;46.90;;;;;;;1.19;75.70;100284.31;4971187;28;20038;-77
2021/11/02 01:00:36;;;;;;;113.85;49.22;;;;;;;1.20;75.72;100280.84;4978540;28;20046;-76
2021/11/02 01:03:04;;;;;;;119.63;47.45;;;;;;;1.23;75.02;100280.72;4992688;28;20038;-75
2021/11/02 01:05:31;;;;;;;120.00;48.55;;;;;;;1.20;75.48;100284.28;4994443;28;20415;-76
2021/11/02 01:07:56;;;;;;;119.00;50.13;;;;;;;1.22;75.75;100282.50;4994415;28;20488;-75
2021/11/02 01:10:23;;;;;;;125.60;50.28;;;;;;;1.23;75.35;100288.53;4988053;28;20035;-75
2021/11/02 01:12:50;;;;;;;129.05;50.75;;;;;;;1.25;76.11;100284.16;4974546;28;20129;-75
2021/11/02 01:15:21;;;;;;;109.75;47.22;;;;;;;1.27;75.23;100282.34;4972374;28;20046;-76
2021/11/02 01:17:47;;;;;;;111.35;44.80;;;;;;;1.26;74.76;100275.44;4976827;28;20046;-76
2021/11/02 01:20:15;;;;;;;114.22;48.53;;;;;;;1.24;75.17;100275.47;4976410;28;20046;-77
2021/11/02 01:22:43;;;;;;;127.35;47.03;;;;;;;1.24;74.67;100272.03;4976231;28;20092;-76
2021/11/02 01:25:09;;;;;;;112.38;47.08;;;;;;;1.25;74.79;100284.16;4993372;28;20038;-78
2021/11/02 01:27:36;;;;;;;133.60;46.25;;;;;;;1.26;75.15;100278.06;4976857;28;20073;-77
2021/11/02 01:30:04;;;;;;;125.00;49.08;;;;;;;1.24;75.07;100272.03;4984514;28;20097;-76
2021/11/02 01:32:30;;;;;;;;;;;;;;;1.11;74.90;100277.56;4961064;28;20065;-76
2021/11/02 01:34:56;;;;;;;134.80;45.85;;;;;;;0.90;75.57;100284.22;4973640;28;20379;-79
2021/11/02 01:37:24;;;;;;;133.70;46.45;;;;;;;0.84;76.11;100283.56;4957338;28;20189;-76
2021/11/02 01:39:52;;;;;;;119.47;46.30;;;;;;;0.77;76.51;100278.53;4960148;28;20480;-76
2021/11/02 01:42:21;;;;;;;114.35;46.00;;;;;;;0.77;76.26;100283.72;4960243;28;20048;-77
2021/11/02 01:44:48;;;;;;;140.02;48.55;;;;;;;0.73;76.36;100283.84;4976435;28;20125;-76
2021/11/02 01:47:18;;;;;;;213.23;52.17;;;;;;;0.70;76.74;100282.19;4994217;28;20450;-76
2021/11/02 01:49:44;;;;;;;172.75;48.78;;;;;;;0.57;76.68;100280.78;4958784;28;20050;-76
2021/11/02 01:52:10;;;;;;;209.68;51.75;;;;;;;0.48;77.43;100282.72;4981808;28;20178;-77
2021/11/02 01:54:37;;;;;;;155.55;50.10;;;;;;;0.45;77.02;100281.97;4975342;28;20051;-77
2021/11/02 01:57:03;;;;;;;137.90;48.33;;;;;;;0.33;77.01;100285.72;4976164;28;20503;-75
2021/11/02 01:59:31;;;;;;;138.27;49.92;;;;;;;0.26;77.24;100277.22;4958108;28;20057;-77
2021/11/02 02:02:31;;;;;;;172.27;52.47;;;;;;;0.25;77.32;100285.91;4959282;28;20058;-80
2021/11/02 02:05:08;;;;;;;135.07;51.60;;;;;;;0.18;77.73;100279.16;4959389;28;20411;-76
2021/11/02 02:08:11;;;;;;;135.32;50.88;;;;;;;0.11;78.16;100286.25;4946571;28;20575;-79
2021/11/02 02:10:55;;;;;;;140.35;55.97;;;;;;;0.09;78.31;100288.03;4982401;28;20073;-79
2021/11/02 02:13:37;;;;;;;143.65;57.03;;;;;;;0.08;78.16;100286.31;4959679;28;20412;-76
2021/11/02 02:16:26;;;;;;;152.23;56.85;;;;;;;-0.18;78.02;100279.97;4953427;28;20048;-75
2021/11/02 02:19:37;;;;;;;155.07;57.17;;;;;;;-0.09;78.67;100286.69;4941439;28;20047;-77
2021/11/02 02:22:09;;;;;;;147.30;58.63;;;;;;;0.02;78.57;100278.66;4973310;28;20062;-75
2021/11/02 02:24:54;;;;;;;155.85;57.38;;;;;;;0.08;78.29;100288.06;4956582;28;20039;-76
2021/11/02 02:27:34;;;;;;;157.00;57.60;;;;;;;-0.01;78.25;100289.16;4953464;29;20502;-76
2021/11/02 02:30:06;;;;;;;143.57;55.50;;;;;;;0.08;78.24;100298.47;4950241;28;20133;-77
2021/11/02 02:32:33;;;;;;;150.07;55.00;;;;;;;0.14;78.17;100288.75;4941192;28;20113;-76
2021/11/02 02:35:01;;;;;;;214.90;56.15;;;;;;;-0.01;78.90;100289.16;4956111;28;20620;-78
2021/11/02 02:37:35;;;;;;;297.42;59.28;;;;;;;0.01;79.84;100287.34;4956272;28;20492;-76
2021/11/02 02:40:03;;;;;;;287.40;57.65;;;;;;;0.18;80.75;100292.16;4959436;28;20518;-76
2021/11/02 02:42:29;;;;;;;339.00;65.88;;;;;;;0.34;80.70;100289.16;4992834;28;20039;-74
2021/11/02 02:44:57;;;;;;;185.40;55.58;;;;;;;0.47;80.71;100286.22;4959825;28;20046;-76
2021/11/02 02:47:25;;;;;;;251.57;59.90;;;;;;;0.59;80.89;100292.84;4975560;28;20038;-77
2021/11/02 02:49:53;;;;;;;312.80;65.10;;;;;;;0.67;80.87;100291.81;4991586;28;20092;-74
2021/11/02 02:52:19;;;;;;;242.40;59.63;;;;;;;0.75;80.24;100289.88;4974779;28;20554;-76
2021/11/02 02:54:51;;;;;;;214.50;58.70;;;;;;;0.86;80.22;100287.84;4974845;28;20082;-75
2021/11/02 02:57:21;;;;;;;318.67;66.10;;;;;;;0.85;80.02;100293.06;4959292;28;20046;-75
2021/11/02 02:59:47;;;;;;;248.00;66.00;;;;;;;0.83;80.38;100294.88;4975295;28;20042;-79
2021/11/02 03:02:14;;;;;;;269.92;60.42;;;;;;;0.96;80.00;100294.50;4953248;28;20077;-74
2021/11/02 03:04:42;;;;;;;268.42;57.80;;;;;;;1.10;79.76;100288.88;4956772;28;20189;-74
2021/11/02 03:07:10;;;;;;;279.73;63.53;;;;;;;1.08;79.35;100297.66;4956698;28;20043;-76
2021/11/02 03:09:37;;;;;;;381.25;71.82;;;;;;;1.10;79.42;100295.88;4956290;28;20110;-79
2021/11/02 03:12:05;;;;;;;364.45;72.47;;;;;;;1.02;78.21;100297.81;4973886;28;20042;-77
2021/11/02 03:14:45;;;;;;;365.52;70.82;;;;;;;1.01;78.46;100302.19;4939679;28;20057;-73
2021/11/02 03:17:13;;;;;;;378.02;75.53;;;;;;;0.95;78.51;100302.34;4972248;28;20051;-78
2021/11/02 03:55:51;;;;;;;248.23;55.40;;;;;;;1.36;78.99;100304.66;4931445;29;20040;-77
2021/11/02 03:58:27;;;;;;;231.68;53.95;;;;;;;1.38;78.54;100303.72;4922466;29;20105;-78
2021/11/02 05:07:33;;;;;;;403.58;65.55;;;;;;;0.83;78.31;100324.34;4986120;28;20058;-79
2021/11/02 05:49:31;;;;;;;353.83;47.65;;;;;;;1.11;78.34;100329.69;4968569;28;20049;-78
2021/11/02 05:59:50;;;;;;;426.55;53.28;;;;;;;1.27;78.33;100334.44;4951126;28;20098;-85
2021/11/02 06:05:39;;;;;;;404.85;55.67;;;;;;;1.48;77.89;100326.94;4972006;28;20043;-76
2021/11/02 06:08:31;;;;;;;353.42;53.25;;;;;;;1.56;77.77;100332.78;4957301;28;20495;-80
2021/11/02 06:28:21;;;;;;;164.27;41.92;;;;;;;2.49;77.06;100332.53;4961280;28;20046;-86
2021/11/02 06:31:15;;;;;;;199.35;40.05;;;;;;;2.49;75.93;100322.09;4968488;28;20482;-85
2021/11/02 06:33:50;;;;;;;298.85;45.95;;;;;;;2.55;74.72;100327.94;4940522;28;20054;-83
2021/11/02 06:36:58;;;;;;;292.92;42.92;;;;;;;2.58;75.05;100332.25;4964080;28;20129;-82
2021/11/02 06:45:32;;;;;;;286.55;46.53;;;;;;;2.18;74.64;100333.50;4939424;28;20066;-83
2021/11/02 07:18:04;;;;;;;182.25;43.85;;;;;;;2.67;74.90;100336.31;4920365;29;20386;-79
2021/11/02 08:48:18;;;;;;;170.10;44.47;;;;;;;4.52;70.10;100339.88;4913899;29;20051;-85
2021/11/02 08:50:50;;;;;;;154.55;47.10;;;;;;;4.54;70.07;100345.88;4869045;29;20080;-76
2021/11/02 08:53:24;;;;;;;196.07;53.50;;;;;;;4.19;70.30;100347.31;4897145;29;20032;-78
2021/11/02 08:55:51;;;;;;;144.30;46.25;;;;;;;4.14;71.01;100355.34;4894301;29;20134;-76
2021/11/02 08:58:19;;;;;;;132.80;43.42;;;;;;;4.13;71.47;100345.78;4890618;29;20051;-79
2021/11/02 09:00:45;;;;;;;145.48;43.65;;;;;;;4.15;72.30;100351.81;4877156;29;20036;-79
2021/11/02 09:03:20;;;;;;;147.07;43.53;;;;;;;4.19;72.36;100347.31;4905566;29;20108;-78
2021/11/02 09:06:07;;;;;;;127.93;44.75;;;;;;;4.12;72.15;100340.63;4938549;28;20074;-79
2021/11/02 09:08:45;;;;;;;114.50;42.17;;;;;;;4.27;72.35;100353.09;4957686;28;20042;-78
2021/11/02 09:11:16;;;;;;;119.53;40.10;;;;;;;4.57;71.43;100346.69;4945899;28;20141;-77
2021/11/02 09:14:02;;;;;;;113.78;43.30;;;;;;;4.32;71.60;100343.28;4955542;28;20130;-79
2021/11/02 09:16:28;;;;;;;137.32;42.60;;;;;;;4.43;70.98;100349.88;4955103;28;20042;-76
2021/11/02 09:18:55;;;;;;;138.98;44.47;;;;;;;4.27;71.27;100354.88;4923982;28;20385;-78
2021/11/02 09:21:22;;;;;;;138.10;43.90;;;;;;;4.15;71.13;100349.22;4972023;28;20050;-77
2021/11/02 09:23:49;;;;;;;165.43;47.22;;;;;;;3.88;72.17;100354.59;4956124;28;20054;-77
2021/11/02 09:26:17;;;;;;;137.60;44.70;;;;;;;4.00;72.84;100355.91;4927526;28;20475;-76
2021/11/02 09:28:44;;;;;;;147.15;46.25;;;;;;;3.87;72.95;100358.13;4974860;28;20046;-78
2021/11/02 09:31:19;;;;;;;150.95;44.67;;;;;;;3.99;73.33;100356.81;4943223;28;20531;-78
2021/11/02 09:33:44;;;;;;;138.43;43.22;;;;;;;3.95;72.85;100347.38;4958439;28;20055;-77
2021/11/02 09:36:14;;;;;;;151.80;45.15;;;;;;;3.91;72.86;100350.16;4976023;28;20133;-78
2021/11/02 09:39:01;;;;;;;153.13;49.30;;;;;;;3.88;73.54;100343.28;4926803;28;20039;-77
2021/11/02 09:42:04;;;;;;;156.52;45.72;;;;;;;3.96;73.36;100338.63;4975090;28;20465;-80
2021/11/02 09:44:32;;;;;;;140.57;42.72;;;;;;;4.00;73.31;100347.16;4975136;28;20078;-77
2021/11/02 09:47:22;;;;;;;152.98;45.33;;;;;;;3.84;73.21;100339.09;4958982;28;20051;-76
2021/11/02 09:50:22;;;;;;;172.73;47.90;;;;;;;3.79;73.93;100338.38;4974572;28;20097;-79
2021/11/02 09:52:54;;;;;;;143.43;46.08;;;;;;;3.70;73.76;100337.84;4958991;28;20535;-78
2021/11/02 09:55:39;;;;;;;127.05;42.92;;;;;;;3.91;74.43;100337.91;4974144;28;20047;-78
2021/11/02 09:58:13;;;;;;;132.43;44.17;;;;;;;3.99;73.40;100342.88;4976511;28;20050;-80
2021/11/02 10:00:53;;;;;;;163.27;43.45;;;;;;;3.99;72.79;100340.25;4926314;28;20089;-79
2021/11/02 10:03:28;;;;;;;135.20;45.58;;;;;;;3.91;73.18;100337.91;4941195;28;20054;-75
2021/11/02 10:06:27;;;;;;;147.93;45.35;;;;;;;3.91;72.51;100332.69;4940955;28;20051;-78
2021/11/02 10:09:08;;;;;;;149.48;47.58;;;;;;;3.91;72.93;100340.53;4942080;28;20126;-78
2021/11/02 10:11:39;;;;;;;132.00;43.15;;;;;;;3.65;73.67;100347.63;4926064;28;20397;-78
2021/11/02 10:14:32;;;;;;;151.65;45.20;;;;;;;3.48;73.47;100348.25;4957523;28;20035;-78
2021/11/02 10:17:19;;;;;;;142.05;45.33;;;;;;;3.49;74.19;100347.34;4958075;28;20046;-78
2021/11/02 10:20:07;;;;;;;166.98;46.40;;;;;;;3.32;74.30;100345.34;4974895;28;20074;-76
2021/11/02 10:23:03;;;;;;;167.70;45.30;;;;;;;3.21;75.27;100337.88;4955649;28;20059;-80
2021/11/02 10:26:05;;;;;;;165.00;45.53;;;;;;;3.28;75.58;100342.88;4974707;28;20043;-76
2021/11/02 10:28:59;;;;;;;140.50;45.15;;;;;;;3.36;75.38;100333.00;4974741;28;20059;-75
2021/11/02 10:31:38;;;;;;;170.32;47.00;;;;;;;3.34;75.05;100338.31;4974233;28;20448;-76
2021/11/02 10:34:11;;;;;;;174.77;47.25;;;;;;;3.36;75.17;100322.56;4973445;28;20063;-79
2021/11/02 10:37:11;;;;;;;187.43;49.67;;;;;;;3.34;75.34;100322.63;4973405;28;20054;-77
2021/11/02 10:39:55;;;;;;;172.02;47.88;;;;;;;3.39;75.42;100320.69;4974996;28;20043;-79
2021/11/02 10:42:41;;;;;;;165.38;47.97;;;;;;;3.36;75.53;100325.16;4974834;28;20529;-78
2021/11/02 10:45:11;;;;;;;173.37;50.53;;;;;;;3.36;75.73;100326.00;4957819;28;20050;-77
2021/11/02 10:47:40;;;;;;;159.48;47.13;;;;;;;3.46;74.94;100325.69;4957297;28;20380;-84
2021/11/02 10:50:09;;;;;;;152.23;48.70;;;;;;;3.47;75.75;100319.56;4972905;28;20046;-81
2021/11/02 10:52:37;;;;;;;158.05;48.67;;;;;;;3.34;75.73;100317.38;4956507;28;20050;-78
2021/11/02 10:55:44;;;;;;;171.32;47.78;;;;;;;3.43;75.73;100320.56;4957227;28;20037;-77
2021/11/02 10:58:33;;;;;;;171.18;47.22;;;;;;;3.33;76.07;100320.91;4942302;28;20054;-77
2021/11/02 11:01:05;;;;;;;178.20;49.60;;;;;;;3.22;76.46;100323.06;4957259;28;20138;-78
2021/11/02 11:03:32;;;;;;;182.85;48.25;;;;;;;3.27;76.63;100315.91;4973033;28;20552;-77
2021/11/02 11:06:02;;;;;;;171.55;47.95;;;;;;;3.28;76.59;100306.28;4974226;28;20377;-79
2021/11/02 11:08:32;;;;;;;163.98;45.55;;;;;;;3.34;76.72;100312.16;4954872;28;20046;-77
2021/11/02 11:11:00;;;;;;;190.63;45.88;;;;;;;3.36;76.62;100310.31;4955218;28;20062;-80
2021/11/02 11:13:30;;;;;;;166.68;45.58;;;;;;;3.24;76.85;100302.97;4973918;28;20524;-80
2021/11/02 11:16:05;;;;;;;200.15;48.95;;;;;;;3.19;77.49;100310.09;4971635;28;20050;-79
2021/11/02 11:18:56;;;;;;;164.18;49.78;;;;;;;3.29;77.64;100310.59;4948877;28;20141;-78
2021/11/02 11:21:25;;;;;;;174.57;45.63;;;;;;;3.45;77.34;100305.66;4972361;28;20054;-78
2021/11/02 11:24:07;;;;;;;151.75;46.05;;;;;;;3.41;77.14;100294.47;4957711;28;20058;-80
2021/11/02 11:26:33;;;;;;;164.95;46.10;;;;;;;3.46;77.49;100310.00;4957649;28;20492;-78
2021/11/02 11:29:06;;;;;;;186.13;46.03;;;;;;;3.37;77.31;100312.03;4975222;28;20074;-79
2021/11/02 11:31:32;;;;;;;173.68;45.17;;;;;;;3.34;77.21;100312.16;4974616;28;20050;-79
2021/11/02 11:34:02;;;;;;;172.80;46.58;;;;;;;3.26;77.81;100310.72;4957552;28;20062;-84
2021/11/02 11:36:30;;;;;;;200.25;43.40;;;;;;;3.24;77.75;100316.03;4972397;28;20651;-79
2021/11/02 11:38:59;;;;;;;170.70;44.58;;;;;;;3.15;77.98;100321.56;4974509;28;20047;-81
2021/11/02 11:41:27;;;;;;;169.10;43.20;;;;;;;3.12;78.17;100313.84;4957620;28;20137;-82
2021/11/02 11:43:54;;;;;;;230.52;46.90;;;;;;;3.02;78.42;100322.00;4956800;28;20447;-78
2021/11/02 11:46:22;;;;;;;168.52;46.40;;;;;;;3.02;78.83;100313.31;4939190;28;20039;-79
2021/11/02 11:48:53;;;;;;;180.27;45.97;;;;;;;3.04;79.09;100314.97;4956752;28;20046;-78
2021/11/02 11:51:21;;;;;;;175.20;46.55;;;;;;;3.07;79.24;100307.00;4955742;28;20113;-79
2021/11/02 11:53:48;;;;;;;180.40;43.00;;;;;;;3.03;78.86;100309.81;4955713;28;20073;-77
2021/11/02 11:56:16;;;;;;;202.10;43.42;;;;;;;2.98;79.32;100309.97;4955568;28;20046;-78
2021/11/02 11:58:54;;;;;;;183.13;46.78;;;;;;;3.07;79.72;100317.47;4956128;28;20054;-77
2021/11/02 12:01:40;;;;;;;174.73;45.30;;;;;;;3.11;79.52;100310.38;4939731;28;20046;-77
2021/11/02 12:04:24;;;;;;;205.80;46.38;;;;;;;3.02;79.25;100314.16;4972841;28;20492;-80
2021/11/02 12:06:58;;;;;;;204.85;47.60;;;;;;;3.02;80.16;100303.72;4973252;28;20035;-81
2021/11/02 12:09:26;;;;;;;201.07;47.85;;;;;;;3.01;79.78;100314.22;4955484;28;20046;-76
2021/11/02 12:11:52;;;;;;;190.73;46.95;;;;;;;3.09;79.82;100309.59;4955528;28;20110;-78
2021/11/02 12:14:24;;;;;;;180.93;45.65;;;;;;;3.11;79.67;100315.59;4939006;28;20046;-78
2021/11/02 12:16:51;;;;;;;190.23;48.70;;;;;;;3.00;80.39;100302.91;4955900;28;20038;-78
2021/11/02 12:19:38;;;;;;;286.00;51.28;;;;;;;2.87;80.61;100317.31;4955335;28;20042;-79
2021/11/02 12:22:07;;;;;;;246.88;52.15;;;;;;;2.85;80.89;100308.69;4955193;28;20492;-78
2021/11/02 12:24:36;;;;;;;205.05;51.88;;;;;;;2.83;81.07;100310.47;4955622;28;20098;-80
2021/11/02 12:27:11;;;;;;;242.73;56.38;;;;;;;2.80;81.07;100306.22;4939274;28;20567;-81
2021/11/02 12:29:38;;;;;;;252.93;53.67;;;;;;;2.83;81.03;100310.47;4939954;28;20043;-82
2021/11/02 12:32:05;;;;;;;210.57;51.58;;;;;;;2.79;81.64;100312.38;4933338;28;20569;-79
2021/11/02 12:34:53;;;;;;;222.95;49.42;;;;;;;2.84;81.39;100307.84;4956146;28;20086;-78
2021/11/02 12:37:20;;;;;;;251.13;51.38;;;;;;;2.92;81.50;100315.41;4955487;28;20039;-78
2021/11/02 12:39:47;;;;;;;209.00;47.33;;;;;;;2.82;81.16;100301.81;4973256;28;20046;-82
2021/11/02 12:42:20;;;;;;;215.45;49.63;;;;;;;2.70;81.76;100310.91;4940092;28;20074;-78
2021/11/02 12:44:49;;;;;;;214.52;49.60;;;;;;;2.78;81.66;100302.81;4956644;28;20042;-77
2021/11/02 12:47:17;;;;;;;218.93;49.65;;;;;;;2.69;81.89;100298.78;4924124;28;20085;-79
2021/11/02 12:49:47;;;;;;;;;;;;;;;2.72;81.94;100309.09;4956723;28;20542;-80
2021/11/02 12:52:15;;;;;;;237.23;48.33;;;;;;;2.74;81.74;100293.38;4973367;28;19925;-78
2021/11/02 12:54:42;;;;;;;191.25;49.22;;;;;;;2.68;82.24;100297.06;4955831;28;20154;-77
2021/11/02 12:57:16;;;;;;;259.70;51.53;;;;;;;2.73;82.29;100300.38;4972994;28;20043;-78
2021/11/02 12:59:47;;;;;;;222.73;49.88;;;;;;;2.71;82.23;100304.78;4959372;28;20043;-76
2021/11/02 13:02:42;;;;;;;242.27;49.60;;;;;;;2.68;82.35;100302.28;4943802;28;20101;-79
2021/11/02 13:05:23;;;;;;;250.98;54.17;;;;;;;2.69;81.98;100309.22;4969210;28;20177;-79
2021/11/02 13:08:07;;;;;;;202.75;54.90;;;;;;;2.70;82.69;100304.84;4976329;28;20074;-78
2021/11/02 13:10:35;;;;;;;231.55;50.35;;;;;;;2.77;82.03;100310.69;4976575;28;20050;-80
2021/11/02 13:13:06;;;;;;;232.93;52.13;;;;;;;2.69;82.28;100314.44;4944016;28;20043;-78
2021/11/02 13:15:47;;;;;;;218.80;48.47;;;;;;;2.71;82.21;100306.56;4943160;28;20381;-78
2021/11/02 13:18:37;;;;;;;256.52;50.42;;;;;;;2.67;82.63;100311.03;4959402;28;20481;-79
2021/11/02 13:21:30;;;;;;;246.45;48.67;;;;;;;2.57;82.74;100310.47;4955920;28;20069;-80
2021/11/02 13:24:22;;;;;;;243.45;47.67;;;;;;;2.59;83.25;100313.03;4975337;28;20509;-78
2021/11/02 13:26:52;;;;;;;242.70;51.17;;;;;;;2.62;82.74;100312.94;4973264;28;20085;-79
2021/11/02 13:29:26;;;;;;;238.95;47.92;;;;;;;2.64;83.05;100321.59;4957104;28;20512;-78
2021/11/02 13:31:54;;;;;;;207.13;48.40;;;;;;;2.60;82.72;100306.91;4974321;28;20129;-78
2021/11/02 13:34:41;;;;;;;180.85;47.83;;;;;;;2.57;83.25;100305.25;4957974;28;20038;-78
2021/11/02 13:37:21;;;;;;;230.35;48.30;;;;;;;2.65;83.18;100312.81;4957860;28;20130;-82
2021/11/02 13:39:57;;;;;;;220.65;46.88;;;;;;;2.65;83.17;100307.59;4957307;28;20546;-79
2021/11/02 13:42:48;;;;;;;209.68;47.72;;;;;;;2.69;82.52;100300.50;4970921;28;20065;-79
2021/11/02 13:45:17;;;;;;;239.13;47.58;;;;;;;2.63;83.03;100319.00;4974099;28;20081;-76
2021/11/02 13:47:44;;;;;;;228.52;41.65;;;;;;;2.57;83.11;100314.84;4971073;28;20125;-81
2021/11/02 13:50:10;;;;;;;261.20;49.55;;;;;;;2.54;83.39;100314.94;4974035;28;20054;-78
2021/11/02 13:52:37;;;;;;;238.35;46.83;;;;;;;2.57;83.45;100307.03;4973643;28;20061;-76
2021/11/02 13:55:04;;;;;;;233.27;50.17;;;;;;;2.64;83.57;100316.38;4941532;28;20086;-79
2021/11/02 13:57:30;;;;;;;228.40;51.75;;;;;;;2.62;83.47;100307.72;4971022;28;20439;-79
2021/11/02 13:59:56;;;;;;;208.02;48.08;;;;;;;2.57;83.28;100299.19;4975066;28;20053;-79
2021/11/02 14:02:24;;;;;;;256.60;51.55;;;;;;;2.51;83.80;100294.19;4975146;28;20503;-75
2021/11/02 14:04:51;;;;;;;246.07;56.70;;;;;;;2.53;83.89;100303.66;4974911;28;20047;-78
2021/11/02 14:07:33;;;;;;;244.73;49.05;;;;;;;2.49;83.64;100298.59;4974694;28;20057;-77
2021/11/02 14:10:04;;;;;;;246.05;50.83;;;;;;;2.46;83.80;100298.69;4942533;28;20097;-78
2021/11/02 14:12:39;;;;;;;239.05;45.55;;;;;;;2.41;83.80;100289.25;4971676;28;20039;-79
2021/11/02 14:15:17;;;;;;;224.68;46.85;;;;;;;2.46;84.25;100286.50;4958203;28;20050;-80
2021/11/02 14:17:49;;;;;;;249.02;49.05;;;;;;;2.53;83.98;100297.56;4957142;28;20084;-80
2021/11/02 14:20:51;;;;;;;281.45;54.05;;;;;;;2.45;84.45;100282.16;4958754;28;20051;-77
2021/11/02 14:23:20;;;;;;;230.02;50.25;;;;;;;2.42;84.15;100264.84;4875695;29;20061;-78
2021/11/02 14:25:45;;;;;;;205.45;47.13;;;;;;;2.49;83.91;100275.09;4846361;29;20049;-78
2021/11/02 14:28:11;;;;;;;219.25;48.35;;;;;;;2.46;84.51;100270.00;4877404;29;20052;-80
2021/11/02 14:30:41;;;;;;;237.15;49.15;;;;;;;2.48;84.11;100261.19;4877389;29;20049;-77
2021/11/02 14:33:11;;;;;;;192.02;46.97;;;;;;;2.42;84.87;100257.03;4877434;29;20071;-79
2021/11/02 14:35:45;;;;;;;202.77;47.15;;;;;;;2.58;84.32;100252.13;4862094;29;20491;-76
2021/11/02 14:38:22;;;;;;;158.48;42.50;;;;;;;2.66;84.29;100246.63;4877430;29;20080;-78
2021/11/02 14:40:53;;;;;;;267.70;45.40;;;;;;;2.63;83.69;100249.38;4847245;29;20040;-78
2021/11/02 14:43:24;;;;;;;235.98;46.33;;;;;;;2.53;83.78;100255.78;4877142;29;20072;-79
2021/11/02 14:46:05;;;;;;;209.73;41.85;;;;;;;2.50;84.16;100241.09;4878895;29;20575;-78
2021/11/02 14:48:40;;;;;;;227.05;45.53;;;;;;;2.53;83.98;100245.34;4878578;29;20049;-76
2021/11/02 14:51:17;;;;;;;197.75;46.30;;;;;;;2.56;83.98;100250.47;4883764;29;20068;-79
2021/11/02 14:54:20;;;;;;;224.30;43.78;;;;;;;2.57;83.86;100252.19;4868125;29;20079;-76
2021/11/02 14:56:47;;;;;;;215.35;44.78;;;;;;;2.50;84.38;100268.97;4895515;28;20416;-78
2021/11/02 14:59:20;;;;;;;212.70;45.97;;;;;;;2.42;84.32;100257.03;4978337;28;20523;-76
2021/11/02 15:01:46;;;;;;;221.27;47.13;;;;;;;2.48;84.26;100258.59;4963469;28;20101;-77
2021/11/02 15:04:18;;;;;;;202.05;45.70;;;;;;;2.49;84.75;100254.19;4960308;28;20042;-79
2021/11/02 15:06:52;;;;;;;253.73;47.55;;;;;;;2.39;84.86;100256.28;4974072;28;20057;-76
2021/11/02 15:09:20;;;;;;;188.70;44.97;;;;;;;2.40;85.25;100261.44;4973316;28;20126;-82
2021/11/02 15:11:47;;;;;;;191.13;43.92;;;;;;;2.44;84.57;100272.63;4974390;28;20568;-76
2021/11/02 15:14:16;;;;;;;161.80;40.17;;;;;;;2.34;84.63;100266.00;4974372;28;20046;-77
2021/11/02 15:16:53;;;;;;;238.52;50.58;;;;;;;2.28;85.39;100277.53;4956894;28;20058;-80
2021/11/02 15:19:23;;;;;;;208.35;44.42;;;;;;;2.24;85.24;100265.47;4969938;28;20138;-83
2021/11/02 15:21:57;;;;;;;204.88;44.92;;;;;;;2.33;85.29;100266.91;4956283;28;20053;-78
2021/11/02 15:24:41;;;;;;;171.20;45.05;;;;;;;2.37;85.42;100268.53;4955804;28;20053;-78
2021/11/02 15:27:13;;;;;;;173.63;41.72;;;;;;;2.35;84.77;100265.97;4972718;28;20074;-82
2021/11/02 15:29:44;;;;;;;159.98;39.97;;;;;;;2.39;85.25;100270.19;4939591;28;20035;-81
2021/11/02 15:32:19;;;;;;;155.48;40.63;;;;;;;2.42;84.79;100261.41;4966231;28;20045;-80
2021/11/02 15:34:52;;;;;;;156.38;42.05;;;;;;;2.38;84.81;100263.25;4993142;28;20057;-79
2021/11/02 15:37:31;;;;;;;157.07;40.03;;;;;;;2.43;84.98;100260.50;4973128;28;20054;-80
2021/11/02 15:40:11;;;;;;;142.02;38.35;;;;;;;2.42;84.27;100257.03;4971431;28;20050;-80
2021/11/02 15:42:43;;;;;;;138.43;39.45;;;;;;;2.41;84.68;100268.38;4973213;28;20131;-78
2021/11/02 15:45:13;;;;;;;154.05;38.78;;;;;;;2.41;84.76;100277.97;4973133;28;20057;-79
2021/11/02 15:47:42;;;;;;;158.10;39.05;;;;;;;2.43;84.53;100284.84;4956799;28;20805;-78
2021/11/02 15:50:12;;;;;;;150.77;40.90;;;;;;;2.43;84.50;100277.00;4973757;28;20051;-76
2021/11/02 15:52:38;;;;;;;147.00;38.65;;;;;;;2.46;84.60;100280.44;4956732;28;20113;-79
2021/11/02 15:55:07;;;;;;;143.80;39.67;;;;;;;2.52;84.18;100282.84;4965620;28;20138;-84
2021/11/02 15:57:56;;;;;;;137.75;39.30;;;;;;;2.53;84.45;100287.13;4973805;28;20106;-82
2021/11/02 16:00:30;;;;;;;138.70;37.95;;;;;;;2.55;83.98;100290.53;4916922;29;20065;-78
2021/11/02 16:02:56;;;;;;;133.77;38.13;;;;;;;2.49;84.08;100286.38;4953537;29;20121;-81
2021/11/02 16:05:25;;;;;;;139.13;39.85;;;;;;;2.50;83.76;100289.84;4954299;29;20223;-80
2021/11/02 16:08:17;;;;;;;131.93;37.97;;;;;;;2.47;83.72;100287.34;4936887;29;20666;-80
2021/11/02 16:11:03;;;;;;;133.00;36.17;;;;;;;2.51;84.21;100288.97;4937014;29;20137;-83
2021/11/02 16:13:29;;;;;;;126.97;35.47;;;;;;;2.47;83.70;100292.56;4936074;29;20061;-80
2021/11/02 16:15:56;;;;;;;131.10;35.53;;;;;;;2.52;83.81;100280.22;4954161;29;20134;-81
2021/11/02 16:18:27;;;;;;;124.43;36.50;;;;;;;2.52;83.59;100285.44;4952055;28;20521;-80
2021/11/02 16:21:02;;;;;;;123.30;35.38;;;;;;;2.47;83.65;100287.34;4940359;28;20047;-81
2021/11/02 16:23:43;;;;;;;125.90;36.10;;;;;;;2.41;84.01;100278.81;4955334;28;20058;-79
2021/11/02 16:26:27;;;;;;;133.52;37.33;;;;;;;2.43;84.22;100287.44;4972556;28;20062;-80
2021/11/02 16:29:19;;;;;;;108.93;33.47;;;;;;;2.43;83.56;100281.38;4971693;28;20053;-79
2021/11/02 16:32:21;;;;;;;138.32;35.70;;;;;;;2.33;84.25;100274.75;4965469;28;20042;-79
2021/11/02 16:35:11;;;;;;;119.15;33.13;;;;;;;2.39;84.15;100279.75;4996964;28;20129;-80